PWSweather.com
Personal Weather Stations
Station Observations
OBESE
Esslingen Am NeckarDE

Esslingen Am NeckarDE

Lat: 48.72855, Lon: 9.33587

Elevation: 851

Station Type: Davis Vantage pro 2 plus

http://www.wetter-esslingen.info

Latest ConditionsUpdated 8:30:17 PM GMT+01:01 Tuesday, Sep 25, 2018
Currently Today's Max Today's Min Today's Average
Temperature 45.5°F7.5°C 60.9°F16.1°C 34.9°F1.6°C 48.1°F8.9°C
Dew Point 35.2°F1.8°C 41.5°F5.3°C 32.9°F0.5°C 35.8°F2.1°C
Winds Calm Calm 8.1 mph -13.0 kmh - - 2.5 mph 4.0 kmh
Wind Gusts -- 10.4 mph16.7 kmh - -
Humidity 67% 96% 36% 67%
Pressure 30.66 in1038.3 mb 30.69 in1039.3 mb 30.61 in1036.6 mb -
Hour Temp Dew Point Humidity Winds Wind Gusts Pressure Precip Precip Rate Daily Precip Total
08:30 PM 45.5°F7.5°C 35.2°F1.8°C 67% Calm Calm -- 30.66 in1038.3 mb - 0.00 in0.0 mm 0.00 in0.0 mm
08:00 PM 48.2°F9.0°C 34.5°F1.4°C 59% Calm Calm -- 30.65 in1037.9 mb - 0.00 in0.0 mm 0.00 in0.0 mm
07:30 PM 50.6°F10.3°C 33.6°F0.9°C 52% 2.3 mph E3.7 kmh E 4.6 mph7.4 kmh 30.64 in1037.6 mb - 0.00 in0.0 mm 0.00 in0.0 mm
07:00 PM 52.0°F11.1°C 32.9°F0.5°C 48% 1.2 mph E1.9 kmh E 2.3 mph3.7 kmh 30.63 in1037.3 mb - 0.00 in0.0 mm 0.00 in0.0 mm
06:30 PM 53.2°F11.8°C 33.0°F0.6°C 46% 2.3 mph E3.7 kmh E 6.9 mph11.1 kmh 30.63 in1037.3 mb - 0.00 in0.0 mm 0.00 in0.0 mm
06:00 PM 55.4°F13.0°C 33.3°F0.7°C 43% 3.5 mph E5.6 kmh E 4.6 mph7.4 kmh 30.63 in1037.3 mb - 0.00 in0.0 mm 0.00 in0.0 mm
05:30 PM 56.7°F13.7°C 33.3°F0.7°C 41% 5.8 mph E9.3 kmh E 10.4 mph16.7 kmh 30.63 in1037.3 mb - 0.00 in0.0 mm 0.00 in0.0 mm
05:00 PM 57.8°F14.3°C 33.6°F0.9°C 40% 3.5 mph E5.6 kmh E 9.2 mph14.8 kmh 30.62 in1036.9 mb - 0.00 in0.0 mm 0.00 in0.0 mm
04:30 PM 58.8°F14.9°C 33.2°F0.7°C 38% 5.8 mph E9.3 kmh E 4.6 mph7.4 kmh 30.63 in1037.3 mb - 0.00 in0.0 mm 0.00 in0.0 mm
04:00 PM 59.3°F15.2°C 33.0°F0.6°C 37% 5.8 mph E9.3 kmh E 8.1 mph13.0 kmh 30.63 in1037.3 mb - 0.00 in0.0 mm 0.00 in0.0 mm
03:30 PM 59.3°F15.2°C 33.0°F0.6°C 37% 2.3 mph ESE3.7 kmh ESE 5.8 mph9.3 kmh 30.63 in1037.3 mb - 0.00 in0.0 mm 0.00 in0.0 mm
03:00 PM 59.9°F15.5°C 32.9°F0.5°C 36% 3.5 mph ESE5.6 kmh ESE 3.5 mph5.6 kmh 30.63 in1037.3 mb - 0.00 in0.0 mm 0.00 in0.0 mm
02:30 PM 60.5°F15.8°C 34.7°F1.5°C 38% 3.5 mph ENE5.6 kmh ENE 9.2 mph14.8 kmh 30.64 in1037.6 mb - 0.00 in0.0 mm 0.00 in0.0 mm
02:00 PM 60.9°F16.1°C 35.1°F1.7°C 38% 4.6 mph E7.4 kmh E 9.2 mph14.8 kmh 30.64 in1037.6 mb - 0.00 in0.0 mm 0.00 in0.0 mm
01:30 PM 60.0°F15.6°C 34.3°F1.3°C 38% 4.6 mph N7.4 kmh N 6.9 mph11.1 kmh 30.64 in1037.6 mb - 0.00 in0.0 mm 0.00 in0.0 mm
01:00 PM 58.8°F14.9°C 35.7°F2.1°C 42% 5.8 mph ESE9.3 kmh ESE 5.8 mph9.3 kmh 30.65 in1037.9 mb - 0.00 in0.0 mm 0.00 in0.0 mm
12:30 PM 58.4°F14.7°C 35.4°F1.9°C 42% 4.6 mph ESE7.4 kmh ESE 5.8 mph9.3 kmh 30.66 in1038.3 mb - 0.00 in0.0 mm 0.00 in0.0 mm
12:00 PM 57.8°F14.3°C 36.0°F2.2°C 44% 4.6 mph SE7.4 kmh SE 5.8 mph9.3 kmh 30.67 in1038.6 mb - 0.00 in0.0 mm 0.00 in0.0 mm
11:30 AM 56.7°F13.7°C 36.1°F2.3°C 46% 4.6 mph E7.4 kmh E 6.9 mph11.1 kmh 30.68 in1038.9 mb - 0.00 in0.0 mm 0.00 in0.0 mm
11:00 AM 56.0°F13.3°C 37.1°F2.8°C 49% 8.1 mph E13.0 kmh E 9.2 mph14.8 kmh 30.68 in1038.9 mb - 0.00 in0.0 mm 0.00 in0.0 mm
10:30 AM 54.7°F12.6°C 38.4°F3.6°C 54% 6.9 mph E11.1 kmh E 8.1 mph13.0 kmh 30.68 in1038.9 mb - 0.00 in0.0 mm 0.00 in0.0 mm
10:00 AM 52.9°F11.6°C 39.8°F4.3°C 61% 6.9 mph E11.1 kmh E 6.9 mph11.1 kmh 30.68 in1038.9 mb - 0.00 in0.0 mm 0.00 in0.0 mm
09:30 AM 51.0°F10.6°C 41.2°F5.1°C 69% 5.8 mph SE9.3 kmh SE 8.1 mph13.0 kmh 30.68 in1038.9 mb - 0.00 in0.0 mm 0.00 in0.0 mm
09:00 AM 48.1°F8.9°C 41.5°F5.3°C 78% 3.5 mph ESE5.6 kmh ESE 5.8 mph9.3 kmh 30.69 in1039.3 mb - 0.00 in0.0 mm 0.00 in0.0 mm
08:30 AM 44.9°F7.2°C 39.7°F4.3°C 82% 1.2 mph SW1.9 kmh SW 2.3 mph3.7 kmh 30.68 in1038.9 mb - 0.00 in0.0 mm 0.00 in0.0 mm
08:00 AM 45.0°F7.2°C 40.2°F4.6°C 83% 1.2 mph ESE1.9 kmh ESE 2.3 mph3.7 kmh 30.68 in1038.9 mb - 0.00 in0.0 mm 0.00 in0.0 mm
07:30 AM 41.3°F5.2°C 38.9°F3.8°C 91% Calm Calm -- 30.67 in1038.6 mb - 0.00 in0.0 mm 0.00 in0.0 mm
07:00 AM 37.2°F2.9°C 36.2°F2.3°C 96% Calm Calm -- 30.66 in1038.3 mb - 0.00 in0.0 mm 0.00 in0.0 mm
06:30 AM 35.0°F1.7°C 34.0°F1.1°C 96% Calm Calm -- 30.66 in1038.3 mb - 0.00 in0.0 mm 0.00 in0.0 mm
06:00 AM 34.9°F1.6°C 33.9°F1.1°C 96% Calm Calm -- 30.65 in1037.9 mb - 0.00 in0.0 mm 0.00 in0.0 mm
05:30 AM 35.4°F1.9°C 34.4°F1.3°C 96% Calm Calm -- 30.64 in1037.6 mb - 0.00 in0.0 mm 0.00 in0.0 mm
05:00 AM 35.4°F1.9°C 34.4°F1.3°C 96% Calm Calm -- 30.64 in1037.6 mb - 0.00 in0.0 mm 0.00 in0.0 mm
04:30 AM 36.1°F2.3°C 34.8°F1.6°C 95% Calm Calm -- 30.64 in1037.6 mb - 0.00 in0.0 mm 0.00 in0.0 mm
04:00 AM 36.8°F2.7°C 35.5°F1.9°C 95% Calm Calm -- 30.64 in1037.6 mb - 0.00 in0.0 mm 0.00 in0.0 mm
03:30 AM 37.6°F3.1°C 36.3°F2.4°C 95% Calm Calm -- 30.63 in1037.3 mb - 0.00 in0.0 mm 0.00 in0.0 mm
03:00 AM 38.6°F3.7°C 37.3°F2.9°C 95% 1.2 mph E1.9 kmh E 1.2 mph1.9 kmh 30.62 in1036.9 mb - 0.00 in0.0 mm 0.00 in0.0 mm
02:30 AM 37.6°F3.1°C 36.3°F2.4°C 95% Calm Calm 2.3 mph3.7 kmh 30.62 in1036.9 mb - 0.00 in0.0 mm 0.00 in0.0 mm
02:00 AM 37.9°F3.3°C 36.6°F2.6°C 95% Calm Calm -- 30.62 in1036.9 mb - 0.00 in0.0 mm 0.00 in0.0 mm
01:30 AM 37.6°F3.1°C 36.3°F2.4°C 95% Calm Calm -- 30.62 in1036.9 mb - 0.00 in0.0 mm 0.00 in0.0 mm
01:00 AM 38.0°F3.3°C 36.5°F2.5°C 94% Calm Calm -- 30.62 in1036.9 mb - 0.00 in0.0 mm 0.00 in0.0 mm
12:30 AM 38.2°F3.4°C 36.7°F2.6°C 94% Calm Calm -- 30.61 in1036.6 mb - 0.00 in0.0 mm 0.00 in0.0 mm
12:00 AM 39.0°F3.9°C 37.4°F3.0°C 94% Calm Calm -- 30.61 in1036.6 mb - 0.00 in0.0 mm 0.00 in0.0 mm